Time;durP1;ratioP1;P1;durP2;ratioP2;P2;SDS_P1;SDS_P2;PMS_P1;PMS_P2;Temp;Humidity;BMP_temperature;BMP_pressure;BME280_temperature;BME280_humidity;BME280_pressure;Samples;Min_cycle;Max_cycle;Signal;HPM_P1;HPM_P2
2023/12/30 00:01:56;;;;;;;5.10;1.08;;;7.10;99.90;;;;;;5028192;28;20049;-76
2023/12/30 00:04:22;;;;;;;10.07;1.60;;;7.10;99.90;;;;;;5021575;28;20034;-76
2023/12/30 00:06:48;;;;;;;3.03;0.60;;;7.10;99.90;;;;;;5032395;28;20045;-76
2023/12/30 00:09:14;;;;;;;4.80;1.00;;;7.10;99.90;;;;;;5028289;28;20120;-76
2023/12/30 00:11:39;;;;;;;6.65;1.00;;;7.10;99.90;;;;;;5025619;28;20044;-76
2023/12/30 00:14:05;;;;;;;4.30;0.88;;;7.10;99.90;;;;;;5029145;28;20034;-76
2023/12/30 00:16:31;;;;;;;3.45;1.00;;;7.10;99.90;;;;;;5043480;28;20046;-76
2023/12/30 00:18:56;;;;;;;5.93;0.90;;;7.10;99.90;;;;;;5054429;28;20344;-76
2023/12/30 00:21:23;;;;;;;6.10;1.13;;;7.10;99.90;;;;;;5024053;28;20133;-76
2023/12/30 00:23:49;;;;;;;4.47;1.10;;;7.10;99.90;;;;;;5022751;28;20056;-76
2023/12/30 00:26:25;;;;;;;12.90;2.22;;;7.10;99.90;;;;;;5059900;28;20045;-76
2023/12/30 00:28:52;;;;;;;4.32;0.82;;;7.10;99.90;;;;;;5022101;28;20052;-76
2023/12/30 00:31:24;;;;;;;3.40;0.93;;;7.10;99.90;;;;;;5043725;28;20033;-77
2023/12/30 00:33:55;;;;;;;4.78;0.95;;;7.10;99.90;;;;;;5025973;28;20100;-76
2023/12/30 00:36:21;;;;;;;3.17;0.60;;;7.00;99.90;;;;;;5022309;28;20531;-76
2023/12/30 00:38:47;;;;;;;7.85;1.02;;;7.00;99.90;;;;;;5040146;28;20041;-76
2023/12/30 00:41:13;;;;;;;3.08;0.65;;;7.00;99.90;;;;;;5033470;28;20049;-76
2023/12/30 00:43:40;;;;;;;7.43;0.90;;;7.00;99.90;;;;;;5029430;28;20072;-76
2023/12/30 00:46:06;;;;;;;;;;;7.00;99.90;;;;;;5026418;28;20388;-76
2023/12/30 00:48:32;;;;;;;7.00;0.93;;;7.00;99.90;;;;;;5054472;28;19929;-76
2023/12/30 00:51:00;;;;;;;2.42;0.65;;;7.00;99.90;;;;;;5026630;28;20540;-76
2023/12/30 00:53:26;;;;;;;7.25;1.05;;;7.00;99.90;;;;;;5038317;28;20545;-76
2023/12/30 00:55:53;;;;;;;7.35;0.90;;;6.90;99.90;;;;;;5022021;28;20128;-76
2023/12/30 00:58:19;;;;;;;;;;;6.90;99.90;;;;;;5022177;28;20049;-76
2023/12/30 01:00:45;;;;;;;5.20;1.17;;;6.90;99.90;;;;;;5027577;28;19921;-76
2023/12/30 01:03:11;;;;;;;6.03;1.42;;;6.90;99.90;;;;;;5023483;28;20053;-76
2023/12/30 01:05:37;;;;;;;4.53;1.00;;;6.80;99.90;;;;;;5041549;28;20056;-76
2023/12/30 01:08:03;;;;;;;4.03;0.98;;;6.80;99.90;;;;;;5026314;28;20037;-77
2023/12/30 01:10:28;;;;;;;6.85;1.00;;;6.80;99.90;;;;;;5027265;28;20075;-77
2023/12/30 01:12:54;;;;;;;6.65;0.95;;;6.80;99.90;;;;;;5026485;28;20049;-75
2023/12/30 01:15:20;;;;;;;8.68;1.23;;;6.80;99.90;;;;;;5060344;28;20045;-77
2023/12/30 01:17:45;;;;;;;6.95;0.95;;;6.80;99.90;;;;;;5041267;28;20493;-76
2023/12/30 01:20:11;;;;;;;8.05;2.97;;;6.80;99.90;;;;;;5024396;28;20131;-77
2023/12/30 01:22:37;;;;;;;5.65;1.25;;;6.70;99.90;;;;;;5026197;28;20041;-77
2023/12/30 01:25:03;;;;;;;7.68;0.98;;;6.70;99.90;;;;;;5054592;28;20041;-77
2023/12/30 01:27:28;;;;;;;4.57;0.82;;;6.70;99.90;;;;;;5026356;28;20511;-77
2023/12/30 01:29:54;;;;;;;8.88;1.88;;;6.80;99.90;;;;;;5024037;28;20045;-77
2023/12/30 01:32:19;;;;;;;4.05;0.70;;;6.80;99.90;;;;;;5024544;28;20037;-77
2023/12/30 01:34:45;;;;;;;9.43;2.47;;;6.80;99.90;;;;;;5024535;28;20378;-77
2023/12/30 01:37:11;;;;;;;4.53;0.85;;;6.80;99.90;;;;;;5015370;28;20542;-77
2023/12/30 01:39:36;;;;;;;5.90;1.30;;;6.80;99.90;;;;;;5027553;28;20057;-77
2023/12/30 01:42:02;;;;;;;3.80;0.70;;;6.60;99.90;;;;;;5028460;28;20515;-77
2023/12/30 01:44:28;;;;;;;7.82;1.13;;;6.70;99.90;;;;;;5025685;28;20045;-77
2023/12/30 01:46:54;;;;;;;5.13;0.82;;;6.70;99.90;;;;;;5031609;28;20033;-77
2023/12/30 01:49:20;;;;;;;6.77;1.30;;;6.70;99.90;;;;;;5025703;28;20117;-77
2023/12/30 01:51:47;;;;;;;11.52;2.28;;;6.70;99.90;;;;;;5026852;28;20116;-76
2023/12/30 01:54:16;;;;;;;6.10;1.08;;;6.70;99.90;;;;;;5022057;28;20104;-77
2023/12/30 01:56:41;;;;;;;5.07;0.80;;;6.70;99.90;;;;;;5038149;28;20076;-77
2023/12/30 01:59:09;;;;;;;12.05;2.25;;;6.70;99.90;;;;;;5025949;28;20057;-77
2023/12/30 02:01:34;;;;;;;7.95;1.63;;;6.70;99.90;;;;;;5025682;28;20049;-77
2023/12/30 02:04:00;;;;;;;9.95;1.90;;;6.70;99.90;;;;;;5019365;28;20045;-77
2023/12/30 02:06:26;;;;;;;11.73;1.00;;;6.70;99.90;;;;;;5030257;28;20050;-77
2023/12/30 02:08:52;;;;;;;7.75;1.25;;;6.70;99.90;;;;;;5042856;28;20138;-77
2023/12/30 02:11:18;;;;;;;7.32;1.00;;;6.70;99.90;;;;;;5023193;28;20049;-77
2023/12/30 02:13:44;;;;;;;3.45;0.73;;;6.60;99.90;;;;;;5028534;28;20038;-77
2023/12/30 02:16:11;;;;;;;8.07;1.17;;;6.70;99.90;;;;;;5029127;28;20045;-77
2023/12/30 02:18:38;;;;;;;3.08;0.80;;;6.60;99.90;;;;;;5062633;28;20057;-76
2023/12/30 02:21:04;;;;;;;8.38;1.95;;;6.50;99.90;;;;;;5024406;28;20568;-76
2023/12/30 02:23:30;;;;;;;4.53;0.80;;;6.50;99.90;;;;;;5024625;28;20053;-77
2023/12/30 02:25:55;;;;;;;10.80;1.92;;;6.50;99.90;;;;;;5059564;28;20397;-76
2023/12/30 02:28:21;;;;;;;11.35;2.40;;;6.50;99.90;;;;;;5062694;28;20553;-77
2023/12/30 02:30:47;;;;;;;8.27;2.10;;;6.50;99.90;;;;;;5051034;28;20100;-77
2023/12/30 02:33:13;;;;;;;9.93;2.42;;;6.50;99.90;;;;;;5046034;28;20060;-77
2023/12/30 02:35:42;;;;;;;3.38;0.90;;;6.50;99.90;;;;;;5019146;28;20049;-77
2023/12/30 02:38:08;;;;;;;6.20;1.08;;;6.50;99.90;;;;;;5029119;28;20095;-77
2023/12/30 02:40:34;;;;;;;9.15;2.13;;;6.50;99.90;;;;;;5027105;28;20049;-77
2023/12/30 02:42:59;;;;;;;3.78;0.82;;;6.50;99.90;;;;;;5028808;28;20412;-77
2023/12/30 02:45:25;;;;;;;5.80;0.75;;;6.50;99.90;;;;;;5036587;28;20049;-77
2023/12/30 02:47:51;;;;;;;4.85;1.45;;;6.40;99.90;;;;;;5021145;28;20096;-77
2023/12/30 02:50:17;;;;;;;4.72;0.88;;;6.40;99.90;;;;;;5025592;28;20049;-77
2023/12/30 02:52:42;;;;;;;4.25;0.80;;;6.30;99.90;;;;;;5027783;28;20071;-77
2023/12/30 02:55:08;;;;;;;8.07;1.30;;;6.30;99.90;;;;;;5023422;28;20041;-77
2023/12/30 02:57:34;;;;;;;2.83;1.00;;;6.20;99.90;;;;;;5041314;28;20045;-77
2023/12/30 02:59:59;;;;;;;3.47;1.00;;;6.20;99.90;;;;;;5020622;28;20053;-77
2023/12/30 03:02:25;;;;;;;4.25;1.25;;;6.20;99.90;;;;;;5026186;28;20050;-77
2023/12/30 03:04:51;;;;;;;5.10;1.70;;;6.20;99.90;;;;;;5049341;28;20052;-77
2023/12/30 03:07:17;;;;;;;7.10;0.93;;;6.10;99.90;;;;;;5049450;28;20049;-77
2023/12/30 03:09:43;;;;;;;4.32;1.17;;;6.00;99.90;;;;;;5026929;28;20099;-77
2023/12/30 03:12:09;;;;;;;5.28;1.08;;;6.10;99.90;;;;;;5026922;28;20477;-77
2023/12/30 03:14:35;;;;;;;5.95;0.88;;;6.10;99.90;;;;;;5024751;28;20068;-77
2023/12/30 03:17:01;;;;;;;5.13;1.00;;;6.10;99.90;;;;;;5026545;28;20057;-77
2023/12/30 03:19:27;;;;;;;5.70;1.05;;;6.00;99.90;;;;;;5031370;28;20053;-77
2023/12/30 03:21:53;;;;;;;4.80;1.17;;;5.90;99.90;;;;;;5053859;28;20072;-77
2023/12/30 03:24:19;;;;;;;9.23;2.57;;;6.00;99.90;;;;;;5017592;28;20590;-77
2023/12/30 03:26:45;;;;;;;11.05;2.28;;;6.00;99.90;;;;;;5058387;28;20087;-77
2023/12/30 03:29:11;;;;;;;9.65;1.98;;;6.10;99.90;;;;;;5025514;28;20545;-77
2023/12/30 03:31:36;;;;;;;12.40;2.15;;;6.10;99.90;;;;;;5018758;28;20050;-77
2023/12/30 03:34:02;;;;;;;10.27;2.38;;;6.10;99.90;;;;;;5025340;28;20041;-77
2023/12/30 03:36:28;;;;;;;11.90;2.30;;;6.10;99.90;;;;;;5043307;28;20037;-77
2023/12/30 03:38:54;;;;;;;12.60;2.63;;;6.10;99.90;;;;;;5032305;28;20048;-77
2023/12/30 03:41:20;;;;;;;11.52;2.42;;;6.10;99.90;;;;;;5026624;28;20037;-76
2023/12/30 03:43:47;;;;;;;6.28;1.15;;;6.10;99.90;;;;;;5040570;28;20057;-77
2023/12/30 03:46:12;;;;;;;5.90;1.30;;;6.10;99.90;;;;;;5025924;28;20072;-77
2023/12/30 03:48:38;;;;;;;11.95;2.80;;;6.00;99.90;;;;;;5028244;28;20564;-77
2023/12/30 03:51:05;;;;;;;3.95;0.77;;;6.00;99.90;;;;;;5024829;28;20096;-77
2023/12/30 03:53:32;;;;;;;11.50;1.90;;;6.00;99.90;;;;;;5017462;28;20061;-77
2023/12/30 03:55:57;;;;;;;10.90;2.25;;;6.00;99.90;;;;;;5029682;28;20430;-77
2023/12/30 03:58:23;;;;;;;7.22;1.30;;;6.10;99.90;;;;;;5042588;28;20080;-77
2023/12/30 04:00:49;;;;;;;13.98;2.60;;;6.10;99.90;;;;;;5042600;28;20065;-76
2023/12/30 04:03:14;;;;;;;13.90;2.60;;;6.10;99.90;;;;;;5023455;28;20053;-77
2023/12/30 04:05:40;;;;;;;15.13;2.50;;;6.10;99.90;;;;;;5026837;28;20041;-77
2023/12/30 04:08:06;;;;;;;13.30;2.75;;;6.10;99.90;;;;;;5026627;28;20053;-77
2023/12/30 04:10:31;;;;;;;9.40;2.15;;;6.10;99.90;;;;;;5026920;28;20045;-76
2023/12/30 04:12:57;;;;;;;7.68;1.35;;;6.00;99.90;;;;;;5060205;28;20037;-76
2023/12/30 04:15:23;;;;;;;8.85;2.60;;;6.10;99.90;;;;;;5026950;28;20107;-77
2023/12/30 04:17:48;;;;;;;10.75;2.05;;;6.10;99.90;;;;;;5030845;28;20250;-77
2023/12/30 04:20:14;;;;;;;7.70;1.17;;;6.10;99.90;;;;;;5026879;28;20033;-76
2023/12/30 04:22:39;;;;;;;7.60;1.20;;;6.10;99.90;;;;;;5047504;28;20100;-77
2023/12/30 04:25:06;;;;;;;11.00;2.75;;;6.10;99.90;;;;;;5055692;28;20451;-77
2023/12/30 04:27:31;;;;;;;9.60;1.38;;;6.10;99.90;;;;;;5039586;28;20049;-77
2023/12/30 04:29:57;;;;;;;7.82;0.95;;;6.10;99.90;;;;;;5029240;28;20477;-76
2023/12/30 04:32:24;;;;;;;11.60;1.52;;;6.10;99.90;;;;;;5024322;28;20413;-77
2023/12/30 04:34:51;;;;;;;13.02;2.40;;;6.10;99.90;;;;;;5026912;28;20045;-77
2023/12/30 04:37:17;;;;;;;7.63;2.08;;;6.20;99.90;;;;;;5022058;28;20395;-77
2023/12/30 04:39:43;;;;;;;4.93;1.10;;;6.10;99.90;;;;;;5023714;28;20099;-77
2023/12/30 04:42:08;;;;;;;10.77;2.00;;;6.10;99.90;;;;;;5052979;28;20037;-77
2023/12/30 04:44:34;;;;;;;9.20;0.70;;;6.00;99.90;;;;;;5021753;28;20775;-76
2023/12/30 04:46:59;;;;;;;13.98;1.48;;;6.00;99.90;;;;;;5041447;28;20080;-77
2023/12/30 04:49:25;;;;;;;12.13;2.80;;;6.00;99.90;;;;;;5024789;28;20047;-77
2023/12/30 04:51:51;;;;;;;13.43;2.95;;;6.00;99.90;;;;;;5017997;28;20051;-77
2023/12/30 04:54:16;;;;;;;11.98;2.58;;;6.00;99.90;;;;;;5026511;28;20057;-76
2023/12/30 04:56:42;;;;;;;9.70;3.90;;;6.10;99.90;;;;;;5023501;28;20037;-77
2023/12/30 04:59:09;;;;;;;16.02;3.30;;;6.10;99.90;;;;;;5026100;28;20033;-76
2023/12/30 05:01:35;;;;;;;13.65;2.90;;;6.00;99.90;;;;;;5059158;28;20448;-77
2023/12/30 05:04:01;;;;;;;10.60;2.72;;;6.00;99.90;;;;;;5023593;28;20445;-76
2023/12/30 05:06:29;;;;;;;14.77;2.60;;;6.00;99.90;;;;;;5016612;28;20437;-77
2023/12/30 05:08:55;;;;;;;10.40;2.33;;;6.00;99.90;;;;;;5022256;28;20328;-77
2023/12/30 05:11:23;;;;;;;3.60;0.80;;;6.00;99.90;;;;;;5027360;28;20061;-77
2023/12/30 05:13:49;;;;;;;8.10;1.08;;;6.00;99.90;;;;;;5027334;28;20068;-77
2023/12/30 05:16:15;;;;;;;8.55;1.45;;;5.90;99.90;;;;;;5055680;28;20477;-77
2023/12/30 05:18:40;;;;;;;14.23;1.85;;;5.90;99.90;;;;;;5059606;28;20045;-76
2023/12/30 05:21:14;;;;;;;8.30;1.15;;;5.90;99.90;;;;;;5026336;28;20124;-77
2023/12/30 05:23:40;;;;;;;7.43;1.25;;;5.80;99.90;;;;;;5029007;28;20073;-76
2023/12/30 05:26:06;;;;;;;6.60;1.00;;;5.80;99.90;;;;;;5026785;28;20043;-77
2023/12/30 05:28:31;;;;;;;12.88;2.40;;;5.70;99.90;;;;;;5024001;28;20037;-77
2023/12/30 05:30:57;;;;;;;8.93;1.13;;;5.90;99.90;;;;;;5020201;28;20041;-77
2023/12/30 05:33:23;;;;;;;4.28;1.02;;;5.90;99.90;;;;;;5038732;28;20083;-77
2023/12/30 05:35:49;;;;;;;10.07;2.78;;;5.90;99.90;;;;;;5039603;28;20049;-77
2023/12/30 05:38:15;;;;;;;6.25;1.33;;;5.90;99.90;;;;;;5025812;28;20052;-77
2023/12/30 05:40:40;;;;;;;12.25;2.53;;;5.90;99.90;;;;;;5021865;28;20115;-77
2023/12/30 05:43:06;;;;;;;13.18;2.80;;;5.90;99.90;;;;;;5027179;28;20045;-77
2023/12/30 05:45:32;;;;;;;12.48;2.83;;;6.00;99.90;;;;;;5026341;28;20396;-77
2023/12/30 05:47:57;;;;;;;11.60;2.90;;;5.90;99.90;;;;;;5030456;28;20482;-77
2023/12/30 05:50:23;;;;;;;14.27;2.95;;;5.90;99.90;;;;;;5056034;28;20514;-77
2023/12/30 05:52:49;;;;;;;12.23;2.60;;;5.90;99.90;;;;;;5028803;28;20061;-77
2023/12/30 05:55:14;;;;;;;16.25;2.85;;;6.00;99.90;;;;;;5033091;28;20036;-77
2023/12/30 05:57:40;;;;;;;13.05;3.20;;;6.00;99.90;;;;;;5029992;28;20052;-77
2023/12/30 06:00:08;;;;;;;11.90;2.30;;;6.00;99.90;;;;;;5061214;28;20068;-76
2023/12/30 06:02:33;;;;;;;12.63;2.45;;;5.90;99.90;;;;;;5029837;28;20456;-77
2023/12/30 06:04:59;;;;;;;12.68;2.72;;;5.90;99.90;;;;;;5055443;28;20141;-77
2023/12/30 06:07:24;;;;;;;12.85;2.88;;;5.90;99.90;;;;;;5029315;28;20077;-77
2023/12/30 06:09:50;;;;;;;6.18;0.98;;;6.00;99.90;;;;;;5028929;28;20154;-76
2023/12/30 06:12:16;;;;;;;12.02;2.55;;;5.90;99.90;;;;;;5026017;28;20124;-77
2023/12/30 06:14:41;;;;;;;14.85;2.80;;;5.80;99.90;;;;;;5030061;28;20469;-77
2023/12/30 06:17:07;;;;;;;11.10;2.60;;;5.90;99.90;;;;;;5025189;28;20507;-76
2023/12/30 06:19:34;;;;;;;5.55;1.02;;;6.00;99.90;;;;;;5060416;28;20045;-77
2023/12/30 06:22:00;;;;;;;7.63;1.02;;;5.90;99.90;;;;;;5026373;28;20431;-76
2023/12/30 06:24:26;;;;;;;10.65;2.10;;;5.90;99.90;;;;;;5028642;28;20029;-77
2023/12/30 06:26:52;;;;;;;8.00;1.48;;;5.90;99.90;;;;;;5028641;28;20462;-77
2023/12/30 06:29:19;;;;;;;8.40;0.90;;;5.90;99.90;;;;;;5031268;28;20116;-77
2023/12/30 06:31:45;;;;;;;8.00;1.73;;;5.90;99.90;;;;;;5018806;28;20049;-77
2023/12/30 06:34:11;;;;;;;11.00;1.42;;;5.80;99.90;;;;;;5025629;28;20047;-77
2023/12/30 06:36:37;;;;;;;5.55;0.98;;;5.80;99.90;;;;;;5030780;28;21007;-77
2023/12/30 06:39:03;;;;;;;8.60;1.88;;;5.80;99.90;;;;;;5029313;28;20048;-77
2023/12/30 06:41:29;;;;;;;8.90;1.15;;;5.80;99.90;;;;;;5028871;28;20493;-77
2023/12/30 06:43:54;;;;;;;5.50;1.02;;;5.80;99.90;;;;;;5028144;28;20068;-75
2023/12/30 06:46:20;;;;;;;8.52;0.80;;;5.80;99.90;;;;;;5025479;28;20048;-75
2023/12/30 06:48:47;;;;;;;6.90;1.30;;;5.70;99.90;;;;;;5026745;28;20057;-75
2023/12/30 06:51:12;;;;;;;6.20;0.90;;;5.80;99.90;;;;;;5025735;28;20056;-74
2023/12/30 06:53:38;;;;;;;5.38;1.13;;;5.80;99.90;;;;;;5025146;28;20056;-74
2023/12/30 06:56:04;;;;;;;7.63;1.55;;;5.80;99.90;;;;;;5023486;28;20160;-76
2023/12/30 06:58:30;;;;;;;8.05;1.48;;;5.80;99.90;;;;;;5028264;28;20322;-76
2023/12/30 07:00:56;;;;;;;5.65;1.35;;;5.80;99.90;;;;;;5024180;28;20100;-76
2023/12/30 07:03:23;;;;;;;9.23;1.17;;;5.80;99.90;;;;;;5029422;28;20076;-77
2023/12/30 07:05:48;;;;;;;8.68;1.25;;;5.80;99.90;;;;;;5057596;28;20051;-78
2023/12/30 07:08:14;;;;;;;9.05;1.10;;;5.80;99.90;;;;;;5023617;28;20535;-77
2023/12/30 07:10:40;;;;;;;8.18;1.15;;;5.80;99.90;;;;;;5024794;28;20100;-77
2023/12/30 07:13:07;;;;;;;4.97;1.00;;;5.80;99.90;;;;;;5015801;28;20053;-77
2023/12/30 07:15:32;;;;;;;9.98;1.25;;;5.80;99.90;;;;;;5025789;28;20056;-76
2023/12/30 07:17:59;;;;;;;8.05;1.58;;;5.80;99.90;;;;;;5022486;28;20033;-76
2023/12/30 07:20:28;;;;;;;5.57;1.58;;;5.80;99.90;;;;;;5030057;28;20037;-77
2023/12/30 07:22:54;;;;;;;6.65;1.30;;;5.80;99.90;;;;;;5021611;28;20098;-76
2023/12/30 07:25:20;;;;;;;11.68;1.98;;;5.80;99.90;;;;;;5032841;28;20053;-76
2023/12/30 07:27:45;;;;;;;5.28;1.25;;;5.70;99.90;;;;;;5023114;28;20045;-77
2023/12/30 07:30:11;;;;;;;7.63;1.35;;;5.70;99.90;;;;;;5050798;28;20477;-75
2023/12/30 07:32:37;;;;;;;7.90;1.92;;;5.70;99.90;;;;;;5012803;28;20049;-75
2023/12/30 07:35:07;;;;;;;6.20;1.30;;;5.70;99.90;;;;;;5021750;28;20033;-75
2023/12/30 07:37:34;;;;;;;6.88;1.80;;;5.70;99.90;;;;;;5019884;28;20058;-75
2023/12/30 07:40:01;;;;;;;11.15;2.78;;;5.70;99.90;;;;;;5040731;28;20041;-75
2023/12/30 07:42:26;;;;;;;13.65;2.50;;;5.70;99.90;;;;;;5022198;28;20056;-75
2023/12/30 07:44:53;;;;;;;8.05;1.85;;;5.70;99.90;;;;;;5031297;28;20037;-75
2023/12/30 07:47:19;;;;;;;5.43;1.05;;;5.70;99.90;;;;;;5017871;28;20060;-75
2023/12/30 07:49:46;;;;;;;12.75;1.50;;;5.60;99.90;;;;;;5054373;28;20073;-75
2023/12/30 07:52:12;;;;;;;10.55;1.52;;;5.60;99.90;;;;;;5019864;28;20038;-75
2023/12/30 07:54:38;;;;;;;10.35;1.75;;;5.60;99.90;;;;;;5021639;28;21064;-76
2023/12/30 07:57:04;;;;;;;7.72;1.45;;;5.60;99.90;;;;;;5015890;28;20491;-75
2023/12/30 07:59:29;;;;;;;5.68;1.52;;;5.60;99.90;;;;;;5024301;28;20091;-74
2023/12/30 08:01:56;;;;;;;8.73;1.17;;;5.60;99.90;;;;;;5020213;28;20574;-74
2023/12/30 08:04:22;;;;;;;8.68;1.58;;;5.60;99.90;;;;;;5032678;28;20073;-74
2023/12/30 08:06:48;;;;;;;7.05;1.30;;;5.60;99.90;;;;;;5054110;28;20527;-73
2023/12/30 08:09:14;;;;;;;8.10;1.60;;;5.60;99.90;;;;;;5026465;28;20064;-75
2023/12/30 08:11:41;;;;;;;6.28;1.40;;;5.60;99.90;;;;;;5023639;28;20045;-75
2023/12/30 08:14:07;;;;;;;9.05;1.98;;;5.60;99.90;;;;;;5026678;28;20033;-75
2023/12/30 08:16:36;;;;;;;8.65;1.75;;;5.60;99.90;;;;;;5025873;28;20047;-75
2023/12/30 08:19:02;;;;;;;9.70;2.25;;;5.70;99.90;;;;;;5020407;28;20099;-75
2023/12/30 08:21:28;;;;;;;11.82;2.53;;;5.70;99.90;;;;;;5014428;28;20190;-75
2023/12/30 08:23:56;;;;;;;8.15;2.10;;;5.70;99.90;;;;;;5024074;28;20764;-73
2023/12/30 08:26:22;;;;;;;7.90;2.00;;;5.70;99.90;;;;;;5023764;28;20045;-75
2023/12/30 08:28:48;;;;;;;9.80;2.22;;;5.80;99.90;;;;;;5017557;28;20107;-75
2023/12/30 08:31:14;;;;;;;7.57;2.65;;;5.80;99.90;;;;;;5015532;28;20041;-74
2023/12/30 08:33:40;;;;;;;11.73;2.20;;;5.80;99.90;;;;;;5016605;28;20042;-75
2023/12/30 08:36:06;;;;;;;7.82;2.35;;;5.80;99.90;;;;;;5024303;28;20056;-74
2023/12/30 08:38:32;;;;;;;14.02;2.00;;;5.80;99.90;;;;;;5019610;28;20306;-74
2023/12/30 08:40:58;;;;;;;9.80;4.25;;;5.90;99.90;;;;;;5019530;28;20049;-75
2023/12/30 08:43:24;;;;;;;7.28;2.20;;;5.80;99.90;;;;;;5024747;28;20084;-75
2023/12/30 08:45:50;;;;;;;10.52;2.35;;;5.90;99.90;;;;;;5028745;28;20624;-75
2023/12/30 08:48:15;;;;;;;6.65;2.28;;;5.90;99.90;;;;;;5028267;28;20068;-75
2023/12/30 08:50:41;;;;;;;17.83;5.28;;;5.90;99.90;;;;;;5022519;28;20452;-76
2023/12/30 08:53:07;;;;;;;12.25;2.78;;;6.00;99.90;;;;;;5043762;28;20472;-76
2023/12/30 08:55:32;;;;;;;18.60;5.28;;;6.00;99.90;;;;;;5029107;28;20060;-77
2023/12/30 08:57:58;;;;;;;14.82;4.72;;;6.00;99.90;;;;;;5027034;28;20045;-77
2023/12/30 09:00:24;;;;;;;13.98;2.78;;;6.10;99.90;;;;;;5031517;28;20054;-75
2023/12/30 09:02:49;;;;;;;9.35;2.55;;;6.10;99.90;;;;;;5032130;28;20050;-77
2023/12/30 09:05:19;;;;;;;17.15;4.85;;;6.10;99.90;;;;;;5023525;28;20551;-77
2023/12/30 09:07:48;;;;;;;7.40;2.58;;;6.10;99.90;;;;;;5023401;28;20048;-76
2023/12/30 09:10:15;;;;;;;10.45;2.63;;;6.10;99.90;;;;;;5025435;28;20055;-79
2023/12/30 09:12:41;;;;;;;12.00;2.97;;;6.20;99.90;;;;;;5031214;28;20040;-77
2023/12/30 09:15:07;;;;;;;15.27;5.30;;;6.10;99.90;;;;;;5030307;28;20341;-74
2023/12/30 09:17:32;;;;;;;16.23;6.53;;;6.20;99.90;;;;;;5029515;28;20041;-77
2023/12/30 09:19:58;;;;;;;20.75;7.22;;;6.30;99.90;;;;;;5064864;28;20122;-77
2023/12/30 09:22:24;;;;;;;23.65;8.05;;;6.30;99.90;;;;;;5037243;28;20469;-76
2023/12/30 09:24:49;;;;;;;14.88;4.30;;;6.40;99.90;;;;;;5063935;28;20071;-78
2023/12/30 09:27:15;;;;;;;20.50;8.93;;;6.40;99.90;;;;;;5031631;28;20153;-78
2023/12/30 09:29:41;;;;;;;21.17;9.00;;;6.40;99.90;;;;;;5063513;28;20133;-78
2023/12/30 09:32:07;;;;;;;20.75;9.25;;;6.50;99.90;;;;;;5026023;28;20508;-78
2023/12/30 09:34:33;;;;;;;19.15;10.02;;;6.60;99.90;;;;;;5032072;28;20067;-76
2023/12/30 09:36:58;;;;;;;19.63;9.73;;;6.60;99.90;;;;;;5025574;28;20500;-79
2023/12/30 09:39:24;;;;;;;19.98;9.35;;;6.60;99.90;;;;;;5026653;28;20049;-79
2023/12/30 09:41:50;;;;;;;21.63;10.00;;;6.70;99.90;;;;;;5027406;28;20045;-74
2023/12/30 09:44:17;;;;;;;22.08;10.38;;;6.70;99.90;;;;;;5035138;28;20496;-77
2023/12/30 09:46:46;;;;;;;22.33;10.02;;;6.70;99.90;;;;;;5037575;28;20055;-76
2023/12/30 09:49:14;;;;;;;21.55;10.23;;;6.70;99.90;;;;;;5032526;28;20489;-78
2023/12/30 09:51:39;;;;;;;23.52;10.27;;;6.70;99.90;;;;;;5026966;28;20045;-76
2023/12/30 09:54:05;;;;;;;12.00;5.28;;;6.70;99.90;;;;;;5031154;28;20139;-76
2023/12/30 09:56:32;;;;;;;9.65;4.35;;;6.70;99.90;;;;;;5064976;28;20097;-78
2023/12/30 09:58:58;;;;;;;20.83;9.73;;;6.70;99.90;;;;;;5025237;28;20045;-79
2023/12/30 10:01:25;;;;;;;13.15;4.63;;;6.70;99.90;;;;;;5025332;28;20053;-80
2023/12/30 10:03:50;;;;;;;21.53;8.63;;;6.70;99.90;;;;;;5041257;28;20077;-81
2023/12/30 10:06:20;;;;;;;20.08;8.40;;;6.80;99.90;;;;;;5031196;28;20531;-79
2023/12/30 10:08:48;;;;;;;18.98;7.15;;;6.90;99.90;;;;;;5028505;28;20556;-78
2023/12/30 10:11:13;;;;;;;17.58;7.03;;;6.90;99.90;;;;;;5062371;28;20049;-79
2023/12/30 10:13:39;;;;;;;11.55;3.53;;;7.00;99.90;;;;;;5030501;28;20075;-79
2023/12/30 10:16:06;;;;;;;14.82;3.72;;;6.90;99.90;;;;;;5062499;28;20049;-79
2023/12/30 10:18:38;;;;;;;16.90;5.55;;;6.90;99.90;;;;;;5059462;28;20048;-79
2023/12/30 10:21:05;;;;;;;7.53;2.47;;;6.80;99.90;;;;;;5059570;28;20046;-79
2023/12/30 10:23:32;;;;;;;9.15;1.92;;;7.00;99.90;;;;;;5023702;28;20504;-79
2023/12/30 10:25:59;;;;;;;15.20;4.82;;;6.90;99.90;;;;;;5028785;28;20088;-76
2023/12/30 10:28:25;;;;;;;15.75;4.13;;;6.90;99.90;;;;;;5026713;28;20048;-78
2023/12/30 10:31:04;;;;;;;14.85;4.25;;;7.00;99.90;;;;;;5040310;28;20038;-77
2023/12/30 10:33:30;;;;;;;15.30;3.83;;;7.10;99.90;;;;;;5029036;28;20045;-78
2023/12/30 10:35:56;;;;;;;14.65;3.50;;;7.00;99.90;;;;;;5029135;28;20060;-76
2023/12/30 10:38:23;;;;;;;12.23;3.45;;;7.00;99.90;;;;;;5057537;28;20072;-76
2023/12/30 10:40:50;;;;;;;16.52;4.18;;;7.10;99.90;;;;;;5018392;28;20053;-77
2023/12/30 10:43:20;;;;;;;15.35;4.05;;;7.10;99.90;;;;;;5022790;28;20041;-76
2023/12/30 10:45:58;;;;;;;12.93;4.10;;;7.20;99.90;;;;;;5014486;28;20493;-80
2023/12/30 10:48:30;;;;;;;12.63;3.92;;;7.20;99.90;;;;;;5061413;28;20064;-80
2023/12/30 10:50:57;;;;;;;13.55;4.05;;;7.20;99.90;;;;;;5025127;28;20992;-77
2023/12/30 10:53:30;;;;;;;14.00;3.85;;;7.20;99.90;;;;;;5060121;28;20103;-77
2023/12/30 10:56:01;;;;;;;16.58;3.90;;;7.30;99.90;;;;;;5017760;28;20046;-78
2023/12/30 10:58:28;;;;;;;14.65;4.38;;;7.30;99.90;;;;;;5015351;28;20113;-78
2023/12/30 11:00:57;;;;;;;16.73;4.18;;;7.40;99.90;;;;;;5040768;28;20516;-77
2023/12/30 11:03:23;;;;;;;17.60;4.03;;;7.30;99.90;;;;;;5026304;28;20049;-77
2023/12/30 11:06:01;;;;;;;15.45;4.53;;;7.40;99.90;;;;;;5039613;28;20754;-78
2023/12/30 11:08:28;;;;;;;13.98;4.45;;;7.50;99.90;;;;;;5024316;28;20493;-78
2023/12/30 11:10:55;;;;;;;14.17;4.07;;;7.50;99.90;;;;;;5026362;28;20041;-77
2023/12/30 11:13:21;;;;;;;9.52;2.35;;;7.60;99.90;;;;;;5026872;28;20029;-78
2023/12/30 11:15:47;;;;;;;13.43;2.25;;;7.60;99.90;;;;;;5027894;28;20401;-78
2023/12/30 11:18:13;;;;;;;13.68;2.95;;;7.60;99.90;;;;;;5059235;28;20053;-78
2023/12/30 11:20:45;;;;;;;11.82;1.95;;;7.70;99.90;;;;;;5025171;28;20083;-78
2023/12/30 11:23:10;;;;;;;9.25;2.25;;;7.70;99.90;;;;;;5027869;28;20042;-78
2023/12/30 11:25:46;;;;;;;9.77;2.53;;;7.80;99.90;;;;;;5042537;28;20045;-78
2023/12/30 11:28:19;;;;;;;8.57;2.08;;;7.80;99.90;;;;;;5018915;28;20058;-78
2023/12/30 11:30:51;;;;;;;14.85;3.95;;;7.80;99.90;;;;;;5040380;28;20477;-82
2023/12/30 11:33:17;;;;;;;17.98;4.97;;;8.00;99.90;;;;;;5024089;28;20049;-82
2023/12/30 11:35:43;;;;;;;16.08;4.93;;;8.00;99.90;;;;;;5029713;28;20049;-78
2023/12/30 11:38:12;;;;;;;15.90;4.50;;;8.00;99.90;;;;;;5030425;28;20029;-78
2023/12/30 11:40:52;;;;;;;17.70;4.90;;;8.10;99.90;;;;;;5055698;28;20072;-77
2023/12/30 11:43:22;;;;;;;15.15;4.82;;;8.20;99.90;;;;;;5022157;28;20134;-77
2023/12/30 11:45:48;;;;;;;18.70;5.30;;;8.20;99.90;;;;;;5014478;28;20524;-79
2023/12/30 11:48:15;;;;;;;13.18;2.70;;;8.20;99.90;;;;;;5029900;28;20046;-79
2023/12/30 11:50:41;;;;;;;17.23;4.67;;;8.30;99.90;;;;;;5058731;28;20052;-78
2023/12/30 11:53:07;;;;;;;12.60;4.57;;;8.20;99.90;;;;;;5026541;28;20318;-79
2023/12/30 11:55:33;;;;;;;15.50;4.47;;;8.20;99.90;;;;;;5059919;28;20321;-78
2023/12/30 11:57:59;;;;;;;14.85;5.13;;;8.20;99.90;;;;;;5032295;28;20043;-77
2023/12/30 12:00:26;;;;;;;15.73;4.65;;;8.30;99.90;;;;;;5028072;28;20136;-78
2023/12/30 12:02:56;;;;;;;14.63;4.38;;;8.30;99.90;;;;;;5026795;28;20103;-81
2023/12/30 12:05:23;;;;;;;14.18;4.57;;;8.30;99.90;;;;;;5044063;28;20037;-77
2023/12/30 12:07:49;;;;;;;14.18;4.63;;;8.40;99.90;;;;;;5025574;28;20050;-80
2023/12/30 12:10:15;;;;;;;17.67;4.95;;;8.30;99.90;;;;;;5025152;28;20041;-79
2023/12/30 12:12:43;;;;;;;8.13;2.92;;;8.40;99.90;;;;;;5025771;28;20056;-82
2023/12/30 12:15:09;;;;;;;11.32;2.90;;;8.40;99.90;;;;;;5024045;28;20060;-79
2023/12/30 12:17:36;;;;;;;14.30;4.60;;;8.30;99.90;;;;;;5056763;28;20061;-81
2023/12/30 12:20:04;;;;;;;13.00;3.90;;;8.40;99.90;;;;;;5022025;28;20291;-81
2023/12/30 12:22:30;;;;;;;17.65;5.07;;;8.40;99.90;;;;;;5022232;28;20102;-76
2023/12/30 12:24:57;;;;;;;18.85;4.80;;;8.50;99.90;;;;;;5025436;28;20071;-75
2023/12/30 12:27:23;;;;;;;17.33;4.50;;;8.60;99.90;;;;;;5023413;28;20076;-79
2023/12/30 12:29:51;;;;;;;15.85;5.18;;;8.60;99.90;;;;;;5019603;28;21675;-78
2023/12/30 12:32:20;;;;;;;;;;;8.60;99.90;;;;;;5022041;28;20491;-79
2023/12/30 12:34:48;;;;;;;14.02;4.38;;;8.50;99.90;;;;;;5023561;28;20396;-78
2023/12/30 12:37:17;;;;;;;13.80;4.63;;;8.50;99.90;;;;;;5036828;28;20037;-78
2023/12/30 12:39:44;;;;;;;17.20;4.65;;;8.50;99.90;;;;;;5029506;28;20068;-80
2023/12/30 12:42:11;;;;;;;16.95;5.00;;;8.60;99.90;;;;;;5024877;28;20084;-80
2023/12/30 12:44:37;;;;;;;13.57;4.45;;;8.70;99.90;;;;;;5020280;28;20064;-80
2023/12/30 12:47:03;;;;;;;16.83;5.28;;;8.60;99.90;;;;;;5036283;28;20127;-76
2023/12/30 12:49:28;;;;;;;21.58;6.07;;;8.60;99.90;;;;;;5035331;28;20041;-76